createdAt,value
2022-08-28T00:03:52.163Z,19.20
2022-08-28T00:13:54.382Z,20.04
2022-08-28T00:23:59.979Z,22.15
2022-08-28T00:34:03.239Z,21.41
2022-08-28T00:44:07.902Z,19.11
2022-08-28T00:54:10.296Z,20.14
2022-08-28T01:04:17.240Z,22.57
2022-08-28T01:14:25.515Z,21.63
2022-08-28T01:24:28.088Z,19.14
2022-08-28T01:34:31.290Z,20.02
2022-08-28T01:44:33.444Z,22.17
2022-08-28T01:54:36.040Z,20.80
2022-08-28T02:04:38.603Z,18.65
2022-08-28T02:14:40.554Z,19.78
2022-08-28T02:24:42.470Z,21.81
2022-08-28T02:34:44.936Z,20.96
2022-08-28T02:44:46.939Z,18.49
2022-08-28T02:54:49.191Z,19.24
2022-08-28T03:04:51.179Z,21.41
2022-08-28T03:14:54.960Z,20.62
2022-08-28T03:24:56.972Z,18.17
2022-08-28T03:34:58.924Z,18.95
2022-08-28T03:45:00.919Z,21.05
2022-08-28T03:55:03.438Z,20.32
2022-08-28T04:05:06.344Z,17.97
2022-08-28T04:15:09.524Z,19.10
2022-08-28T04:25:11.440Z,21.92
2022-08-28T04:35:14.118Z,21.27
2022-08-28T04:45:16.136Z,19.20
2022-08-28T04:55:18.442Z,20.90
2022-08-28T05:06:01.045Z,21.82
2022-08-28T05:16:04.533Z,21.67
2022-08-28T05:26:12.068Z,23.50
2022-08-28T05:36:15.879Z,25.06
2022-08-28T05:46:18.029Z,26.52
2022-08-28T05:56:30.009Z,25.74
2022-08-28T06:06:35.083Z,25.36
2022-08-28T06:16:40.389Z,25.39
2022-08-28T06:26:42.422Z,27.25
2022-08-28T06:36:44.525Z,30.23
2022-08-28T06:46:48.587Z,35.06
2022-08-28T06:56:52.209Z,40.50
2022-08-28T07:06:54.993Z,44.55
2022-08-28T07:16:57.813Z,47.59
2022-08-28T07:27:00.079Z,49.79
2022-08-28T07:37:04.414Z,51.51
2022-08-28T07:47:08.721Z,53.14
2022-08-28T07:57:11.099Z,54.57
2022-08-28T08:07:14.800Z,55.78
2022-08-28T08:17:43.231Z,56.86
2022-08-28T08:27:47.120Z,57.73
2022-08-28T08:37:49.151Z,58.42
2022-08-28T08:47:55.983Z,58.87
2022-08-28T08:58:07.791Z,59.36
2022-08-28T09:08:23.398Z,60.39
2022-08-28T09:18:31.668Z,61.43
2022-08-28T09:28:37.057Z,61.36
2022-08-28T09:38:39.275Z,60.60
2022-08-28T09:48:52.603Z,61.11
2022-08-28T09:59:06.946Z,61.24
2022-08-28T10:09:28.681Z,60.89
2022-08-28T10:19:54.535Z,59.98
2022-08-28T10:30:08.824Z,59.12
2022-08-28T10:40:23.264Z,56.70
2022-08-28T10:50:28.488Z,49.94
2022-08-28T11:00:30.598Z,43.80
2022-08-28T11:10:32.593Z,39.52
2022-08-28T11:20:35.664Z,36.80
2022-08-28T11:30:37.684Z,35.02
2022-08-28T11:40:50.570Z,33.97
2022-08-28T11:51:13.973Z,33.58
2022-08-28T12:01:26.164Z,33.51
2022-08-28T12:11:40.815Z,33.10
2022-08-28T12:21:43.985Z,32.43
2022-08-28T12:32:23.075Z,31.87
2022-08-28T12:42:33.363Z,31.42
2022-08-28T12:52:35.733Z,31.03
2022-08-28T13:02:53.114Z,30.76
2022-08-28T13:13:04.700Z,30.54
2022-08-28T13:23:07.749Z,30.35
2022-08-28T13:33:23.985Z,30.19
2022-08-28T13:43:27.643Z,30.14
2022-08-28T13:53:30.089Z,30.22
2022-08-28T14:03:40.611Z,30.18
2022-08-28T14:13:47.047Z,30.03
2022-08-28T14:23:58.803Z,29.89
2022-08-28T14:34:02.665Z,29.69
2022-08-28T14:44:07.066Z,29.47
2022-08-28T14:54:11.509Z,29.18
2022-08-28T15:04:15.334Z,28.85
2022-08-28T15:14:17.333Z,28.56
2022-08-28T15:24:21.537Z,28.27
2022-08-28T15:34:25.221Z,28.09
2022-08-28T15:44:28.347Z,27.97
2022-08-28T15:54:32.098Z,27.84
2022-08-28T16:04:34.090Z,27.73
2022-08-28T16:14:36.451Z,27.51
2022-08-28T16:24:39.090Z,27.14
2022-08-28T16:34:45.549Z,26.71
2022-08-28T16:44:49.576Z,26.25
2022-08-28T16:54:52.430Z,25.84
2022-08-28T17:05:04.272Z,25.47
2022-08-28T17:15:11.407Z,25.10
2022-08-28T17:25:13.866Z,24.68
2022-08-28T17:35:17.610Z,24.28
2022-08-28T17:45:21.698Z,23.89
2022-08-28T17:55:24.511Z,23.57
2022-08-28T18:05:26.493Z,23.32
2022-08-28T18:15:29.964Z,23.13
2022-08-28T18:25:48.638Z,22.95
2022-08-28T18:35:53.667Z,22.75
2022-08-28T18:45:55.924Z,24.60
2022-08-28T18:55:59.163Z,25.43
2022-08-28T19:06:06.883Z,23.94
2022-08-28T19:16:09.767Z,23.19
2022-08-28T19:26:18.490Z,24.71
2022-08-28T19:36:22.535Z,25.37
2022-08-28T19:46:26.864Z,23.66
2022-08-28T19:56:33.662Z,22.67
2022-08-28T20:06:36.308Z,24.11
2022-08-28T20:16:39.956Z,24.75
2022-08-28T20:26:43.004Z,22.84
2022-08-28T20:36:45.221Z,23.82
2022-08-28T20:46:50.963Z,25.83
2022-08-28T20:56:54.577Z,25.26
2022-08-28T21:06:56.442Z,23.29
2022-08-28T21:16:59.091Z,24.20
2022-08-28T21:27:01.167Z,25.96
2022-08-28T21:37:04.119Z,25.28
2022-08-28T21:47:06.216Z,23.29
2022-08-28T21:57:08.486Z,24.14
2022-08-28T22:07:12.260Z,24.51
2022-08-28T22:17:15.512Z,22.75
2022-08-28T22:27:17.628Z,23.91
2022-08-28T22:37:19.289Z,25.98
2022-08-28T22:47:21.068Z,26.55
2022-08-28T22:57:22.789Z,24.61
2022-08-28T23:07:24.562Z,22.89
2022-08-28T23:17:26.168Z,23.86
2022-08-28T23:27:36.784Z,25.72
2022-08-28T23:37:39.721Z,24.95
2022-08-28T23:47:42.392Z,22.90
2022-08-28T23:57:44.520Z,23.83
